CheckWX is a tool to help pilots better visualize weather data.  It is not intended as a substitute for an official pre-flight weather briefing.

02:14:05 UTC

UCFO METAR
Osh
Osh
Current

44 mins ago

UCFO 080130Z 18002MPS 4000 FU NSC M01/M05 Q1026 R12/0///95 NOSIG
Observed
Dec-8 @ 01:30 UTC
Wind
  • 180° at 4 KTS
Visibility
4,000 meters
Flight Rules
IFR
Conditions
Smoke
Cloud Levels
  • Clear skies
Temperature
-1°C / 30°F
Dewpoint
-5°C / 23°F
Humidity
75%
Altimeter
30.3" Hg
Pressure
1025.92 hPa
Previous

1 hour ago

UCFO 080100Z 16002MPS 5000 FU NSC M00/M04 Q1026 R12/0///95 NOSIG
Observed
Dec-8 @ 01:00 UTC
Wind
  • 160° at 4 KTS
Visibility
5,000 meters
Flight Rules
MVFR
Conditions
Smoke
Cloud Levels
  • Clear skies
Temperature
C / 32°F
Dewpoint
-4°C / 25°F
Humidity
75%
Altimeter
30.3" Hg
Pressure
1025.92 hPa
Previous

2 hours ago

UCFO 080030Z 13002MPS 9000 NSC M01/M05 Q1026 R12/0///95 NOSIG
Observed
Dec-8 @ 00:30 UTC
Wind
  • 130° at 4 KTS
Visibility
9,000 meters
Flight Rules
VFR
Cloud Levels
  • Clear skies
Temperature
-1°C / 30°F
Dewpoint
-5°C / 23°F
Humidity
75%
Altimeter
30.3" Hg
Pressure
1025.92 hPa